Winterville, GA (30683)

6:40 AM EDT on September 20, 2014 (GMT -0400)
Wyndfield | Change Station
CLOSE
Current Station
Personal Weather Station
Location: Athens-Clarke County, GA
Elevation: 647 ft
Nearby Weather Stations

Elev 647 ft 33.91 °N, 83.30 °W | Updated 57 seconds ago

Scattered Clouds
Scattered Clouds
65.2 °F
Feels Like 65.2 °F
N
0.0
Wind Variable Wind from WSW
Gusts 0.0 mph

Today
High -- | Low -- °F
--% Chance of Precip.
Yesterday
High -- | Low -- °F
Precip. -- in
7:19 AM 7:32 PM
Waning Crescent, 13% visible
Pressure 30.12 in
Visibility 9.0 miles
Clouds Scattered Clouds 4400 ft
Dew Point -3 °F
Humidity 6%
Rainfall 0.00 in
Snow Depth Not available.
UV 0 out of 12
Pollen 7.90 out of 12
Air Quality Not available.
Flu Activity Not available.
METAR KAHN 200951Z AUTO 06006KT 9SM SCT044 18/16 A3014 RMK AO2 SLP200 T01780161

More Conditions Fewer Conditions

Pressure 30.12 in
Visibility 9.0 miles
Clouds Scattered Clouds 4400 ft
Dew Point -3 °F
Humidity 6%
Rainfall 0.00 in
Snow Depth Not available.
UV 0 out of 12
Pollen 7.90 out of 12
Air Quality Not available.
Flu Activity Not available.
METAR KAHN 200951Z AUTO 06006KT 9SM SCT044 18/16 A3014 RMK AO2 SLP200 T01780161

More Conditions Fewer Conditions

10-Day Weather Forecast

Almanac

Astronomy

Sep. 20, 2014 Rise Set
Actual Time 7:19 AM EDT 7:32 PM EDT
Civil Twilight 6:54 AM EDT 7:57 PM EDT
Nautical Twilight 6:25 AM EDT 8:26 PM EDT
Astronomical Twilight 5:56 AM EDT 8:56 PM EDT
Moon 4:05 AM EDT 5:29 PM EDT
Length of Visible Light 13h 02m
Length of Day
12h 12m
Tomorrow will be 2m 5s shorter.
Waning Crescent, 13% of the Moon is Illuminated
Today
Waning Crescent
Sep 24
New
Oct 1
First Quarter
Oct 8
Full
Oct 15
Last Quarter

Today's Extremes

State Highs State Lows

Community

WunderPhotos

Upload Photos

1,754,827 photos uploaded!

WunderBlogs® & News

Nearby

Snow Depth

Station Depth Elevation
No new snow has been reported.

Earthquake Activity

City Distance Mag. Time & Date
New Ellenton, South Carolina 97 miles 2.6 4:38 PM EDT
2014-09-19
Minimum magnitude displayed is 2.5.

Coastal Water Temperatures

Place Temperature
No Stations Reporting

Nearby Weather Stations